createdAt,value
2023-04-09T11:20:27.160Z,7.40
2023-04-09T11:21:27.136Z,7.10
2023-04-09T11:22:27.105Z,8.30
2023-04-09T11:23:27.100Z,7.40
2023-04-09T11:24:27.070Z,7.40
2023-04-09T11:25:27.070Z,9.00
2023-04-09T11:26:27.033Z,15.80
2023-04-09T11:27:27.038Z,17.30
2023-04-09T11:28:27.007Z,12.30
2023-04-09T11:29:27.013Z,11.60
2023-04-09T11:30:26.979Z,13.60
2023-04-09T11:31:27.039Z,8.40
2023-04-09T11:32:26.945Z,7.90
2023-04-09T11:33:26.949Z,6.90
2023-04-09T11:34:26.903Z,7.60
2023-04-09T11:35:26.935Z,7.40
2023-04-09T11:36:26.887Z,7.40
2023-04-09T11:37:26.881Z,7.30
2023-04-09T11:38:26.853Z,7.60
2023-04-09T11:39:26.862Z,7.70
2023-04-09T11:40:26.837Z,6.70
2023-04-09T11:41:26.827Z,7.50
2023-04-09T11:42:26.808Z,6.60
2023-04-09T11:43:26.786Z,7.50
2023-04-09T11:44:26.785Z,7.30
2023-04-09T11:45:26.761Z,7.70
2023-04-09T11:46:26.772Z,6.90
2023-04-09T11:47:26.798Z,7.10
2023-04-09T11:48:26.715Z,6.90
2023-04-09T11:49:26.727Z,6.90
2023-04-09T11:50:26.696Z,6.90
2023-04-09T11:51:26.714Z,6.30
2023-04-09T11:52:26.683Z,7.70
2023-04-09T11:53:26.653Z,6.70
2023-04-09T11:54:26.632Z,6.70
2023-04-09T11:55:26.659Z,6.50
2023-04-09T11:56:26.619Z,7.50
2023-04-09T11:57:26.620Z,6.60
2023-04-09T11:58:26.611Z,7.20
2023-04-09T11:59:26.595Z,6.90
2023-04-09T12:00:26.559Z,7.10
2023-04-09T12:01:26.606Z,7.10
2023-04-09T12:02:26.694Z,6.00
2023-04-09T12:03:26.724Z,5.90
2023-04-09T12:04:26.720Z,6.50
2023-04-09T12:05:26.507Z,6.10
2023-04-09T12:06:26.518Z,6.60
2023-04-09T12:07:26.503Z,6.00
2023-04-09T12:08:26.472Z,6.20
2023-04-09T12:09:26.485Z,6.00
2023-04-09T12:10:26.451Z,6.30
2023-04-09T12:11:26.449Z,6.10
2023-04-09T12:12:26.438Z,6.40
2023-04-09T12:13:26.438Z,6.70
2023-04-09T12:14:26.396Z,7.60
2023-04-09T12:15:26.418Z,7.00
2023-04-09T12:16:26.416Z,6.50
2023-04-09T12:17:26.408Z,7.80
2023-04-09T12:18:26.349Z,9.20
2023-04-09T12:19:26.346Z,7.20
2023-04-09T12:20:26.344Z,6.60
2023-04-09T12:21:26.339Z,7.00
2023-04-09T12:22:26.351Z,5.90
2023-04-09T12:23:26.311Z,5.70
2023-04-09T12:24:26.276Z,5.60
2023-04-09T12:25:26.277Z,5.80
2023-04-09T12:26:26.274Z,5.50
2023-04-09T12:27:26.279Z,6.80
2023-04-09T12:28:26.248Z,7.60
2023-04-09T12:29:26.229Z,6.50
2023-04-09T12:30:26.237Z,6.70
2023-04-09T12:31:26.265Z,8.90
2023-04-09T12:32:26.244Z,9.50
2023-04-09T12:33:26.214Z,7.20
2023-04-09T12:34:26.187Z,7.10
2023-04-09T12:35:26.219Z,6.60
2023-04-09T12:36:26.161Z,6.80
2023-04-09T12:37:26.169Z,6.30
2023-04-09T12:38:26.137Z,7.70
2023-04-09T12:39:26.137Z,6.20
2023-04-09T12:40:26.166Z,6.50
2023-04-09T12:41:26.110Z,6.30
2023-04-09T12:42:26.108Z,9.20
2023-04-09T12:43:26.075Z,10.50
2023-04-09T12:44:26.052Z,9.80
2023-04-09T12:45:26.054Z,7.30
2023-04-09T12:46:26.065Z,9.10
2023-04-09T12:47:26.074Z,7.40
2023-04-09T12:48:25.999Z,6.10
2023-04-09T12:49:26.001Z,7.20
2023-04-09T12:50:26.052Z,6.70
2023-04-09T12:51:25.974Z,6.60
2023-04-09T12:52:25.981Z,7.80
2023-04-09T12:53:25.946Z,7.60
2023-04-09T12:54:25.938Z,6.60
2023-04-09T12:55:25.970Z,7.00
2023-04-09T12:56:26.472Z,5.80
2023-04-09T12:57:25.942Z,6.30
2023-04-09T12:58:25.894Z,6.70
2023-04-09T12:59:25.879Z,9.00
2023-04-09T13:00:25.876Z,6.60
2023-04-09T13:01:25.876Z,6.20
2023-04-09T13:02:26.057Z,5.40
2023-04-09T13:03:26.014Z,6.30
2023-04-09T13:15:53.617Z,4.80
2023-04-09T13:16:53.637Z,6.20
2023-04-09T13:17:53.630Z,6.70
2023-04-09T13:18:53.730Z,6.60
2023-04-09T13:19:53.595Z,5.50
2023-04-09T13:20:53.531Z,5.90
2023-04-09T13:21:53.522Z,6.00
2023-04-09T13:22:53.530Z,6.30
2023-04-09T13:23:53.494Z,6.30
2023-04-09T13:24:53.470Z,6.10
2023-04-09T13:25:53.451Z,7.40
2023-04-09T13:26:53.446Z,6.00
2023-04-09T13:27:53.435Z,6.40
2023-04-09T13:28:53.591Z,6.50
2023-04-09T13:29:53.400Z,6.90
2023-04-09T13:30:53.557Z,6.90
2023-04-09T13:31:53.384Z,6.10
2023-04-09T13:32:53.439Z,6.80
2023-04-09T13:33:53.341Z,6.10
2023-04-09T13:34:53.354Z,6.50
2023-04-09T13:35:53.354Z,5.50
2023-04-09T13:36:53.328Z,6.50
2023-04-09T13:37:53.302Z,6.00
2023-04-09T13:38:53.459Z,5.70
2023-04-09T13:39:53.269Z,5.60
2023-04-09T13:40:53.257Z,5.80
2023-04-09T13:41:53.236Z,6.30
2023-04-09T13:42:53.238Z,5.60
2023-04-09T13:43:53.222Z,5.90
2023-04-09T13:44:53.216Z,5.90
2023-04-09T13:45:53.236Z,5.70
2023-04-09T13:46:53.188Z,5.60
2023-04-09T13:47:53.188Z,5.40
2023-04-09T13:48:53.361Z,5.40
2023-04-09T13:49:53.145Z,5.70
2023-04-09T13:50:53.138Z,5.40
2023-04-09T13:51:53.106Z,5.60
2023-04-09T13:52:53.118Z,5.80
2023-04-09T13:53:53.086Z,6.10
2023-04-09T13:54:53.086Z,5.50
2023-04-09T13:55:53.045Z,6.00
2023-04-09T13:56:53.037Z,6.00
2023-04-09T13:57:53.029Z,5.40
2023-04-09T13:58:53.205Z,5.30
2023-04-09T13:59:52.991Z,5.70
2023-04-09T14:00:53.005Z,5.80
2023-04-09T14:01:53.096Z,5.50
2023-04-09T14:02:53.152Z,5.70
2023-04-09T14:03:53.426Z,5.80
2023-04-09T14:05:58.930Z,6.30
2023-04-09T14:06:58.936Z,6.30
2023-04-09T14:07:58.923Z,5.10
2023-04-09T14:08:58.919Z,5.20
2023-04-09T14:09:58.888Z,4.90
2023-04-09T14:10:58.889Z,4.90
2023-04-09T14:11:58.858Z,5.10
2023-04-09T14:12:58.869Z,4.70
2023-04-09T14:13:58.863Z,5.10
2023-04-09T14:14:58.868Z,4.70
2023-04-09T14:16:00.526Z,5.00
2023-04-09T14:16:58.856Z,5.00
2023-04-09T14:17:58.821Z,5.30
2023-04-09T14:18:58.800Z,4.70
2023-04-09T14:19:58.796Z,4.60
2023-04-09T14:20:58.783Z,5.10
2023-04-09T14:21:58.773Z,4.70
2023-04-09T14:22:58.780Z,4.30
2023-04-09T14:23:58.763Z,4.60
2023-04-09T14:24:58.766Z,4.70
2023-04-09T14:25:58.753Z,4.40
2023-04-09T14:26:58.735Z,4.70
2023-04-09T14:27:58.723Z,4.80
2023-04-09T14:28:58.733Z,4.20
2023-04-09T14:29:58.708Z,4.40
2023-04-09T14:30:58.735Z,4.20
2023-04-09T14:31:58.705Z,4.80
2023-04-09T14:32:58.766Z,4.70
2023-04-09T14:33:58.675Z,4.20
2023-04-09T14:34:58.677Z,4.60
2023-04-09T14:35:58.723Z,5.10
2023-04-09T14:42:34.138Z,3.90
2023-04-09T14:43:34.109Z,4.40
2023-04-09T14:44:34.072Z,4.30
2023-04-09T14:45:34.068Z,4.40
2023-04-09T14:46:34.065Z,4.60
2023-04-09T14:47:34.069Z,4.40
2023-04-09T14:48:34.043Z,4.50
2023-04-09T14:49:33.987Z,4.40
2023-04-09T14:50:34.025Z,4.10
2023-04-09T14:51:33.989Z,4.60
2023-04-09T14:52:33.956Z,4.60
2023-04-09T14:53:33.951Z,4.70
2023-04-09T14:54:33.983Z,4.60
2023-04-09T14:55:41.776Z,4.30
2023-04-09T14:56:33.899Z,4.80
2023-04-09T14:57:33.894Z,4.40
2023-04-09T14:58:33.899Z,4.60
2023-04-09T14:59:33.869Z,4.50
2023-04-09T15:00:33.867Z,4.20
2023-04-09T15:01:33.892Z,4.80
2023-04-09T15:02:34.030Z,4.40
2023-04-09T15:03:33.962Z,4.40
2023-04-09T15:04:33.878Z,4.30
2023-04-09T15:05:33.774Z,4.40
2023-04-09T15:06:33.787Z,4.20
2023-04-09T15:07:33.764Z,4.10
2023-04-09T15:08:33.800Z,3.80
2023-04-09T15:09:33.719Z,4.10
2023-04-09T15:10:33.717Z,3.80
2023-04-09T15:11:33.719Z,4.10
2023-04-09T15:12:33.729Z,4.10
2023-04-09T15:13:33.705Z,4.40
2023-04-09T15:14:33.693Z,4.00
2023-04-09T15:15:33.650Z,4.10
2023-04-09T15:16:33.700Z,3.60
2023-04-09T15:17:33.705Z,4.10
2023-04-09T15:18:33.628Z,4.20
2023-04-09T15:19:33.614Z,3.80
2023-04-09T15:20:33.615Z,4.40
2023-04-09T15:21:33.615Z,4.20
2023-04-09T15:22:33.593Z,3.80
2023-04-09T15:23:33.600Z,4.00
2023-04-09T15:24:33.551Z,4.00
2023-04-09T15:25:33.555Z,4.00
2023-04-09T15:26:33.549Z,4.00
2023-04-09T15:27:33.544Z,4.80
2023-04-09T15:28:33.537Z,4.40
2023-04-09T15:29:33.519Z,4.30
2023-04-09T15:30:33.489Z,4.20
2023-04-09T15:31:33.563Z,4.10
2023-04-09T15:32:33.539Z,4.00
2023-04-09T15:33:33.465Z,4.40
2023-04-09T15:34:33.451Z,3.90
2023-04-09T15:35:33.515Z,4.30
2023-04-09T15:36:33.408Z,4.40
2023-04-09T15:37:33.404Z,4.20
2023-04-09T15:38:33.416Z,4.60
2023-04-09T15:39:33.383Z,4.40
2023-04-09T15:40:33.382Z,3.90
2023-04-09T15:41:33.354Z,4.30
2023-04-09T15:42:33.350Z,4.40
2023-04-09T15:43:33.366Z,4.40
2023-04-09T15:44:33.309Z,4.60
2023-04-09T15:45:33.317Z,4.70
2023-04-09T15:46:33.287Z,4.10
2023-04-09T15:58:58.977Z,4.00
2023-04-09T16:03:41.877Z,8.00
2023-04-09T16:04:41.976Z,4.00
2023-04-09T16:05:41.822Z,3.90
2023-04-09T16:06:41.816Z,3.90
2023-04-09T16:07:41.813Z,4.40
2023-04-09T16:08:41.823Z,4.00
2023-04-09T16:09:41.797Z,4.20
2023-04-09T16:10:41.766Z,4.40
2023-04-09T16:11:41.768Z,3.80
2023-04-09T16:12:41.745Z,4.00
2023-04-09T16:13:41.727Z,3.90
2023-04-09T16:14:41.732Z,3.70
2023-04-09T16:15:41.713Z,4.30
2023-04-09T16:16:42.524Z,4.00
2023-04-09T16:17:41.758Z,4.20
2023-04-09T16:18:41.684Z,4.10
2023-04-09T16:19:41.702Z,4.30
2023-04-09T16:20:41.667Z,4.40
2023-04-09T16:21:41.651Z,4.20
2023-04-09T16:22:41.666Z,4.50
2023-04-09T16:23:41.647Z,4.00
2023-04-09T16:24:41.663Z,4.00
2023-04-09T16:25:41.636Z,3.70
2023-04-09T16:26:41.633Z,4.10
2023-04-09T16:27:41.593Z,4.10
2023-04-09T16:28:41.602Z,3.70
2023-04-09T16:29:41.586Z,3.90
2023-04-09T16:30:41.590Z,3.80
2023-04-09T16:31:41.581Z,4.00
2023-04-09T16:32:41.616Z,4.20
2023-04-09T16:33:41.543Z,3.70
2023-04-09T16:34:41.549Z,3.90
2023-04-09T16:35:41.569Z,3.80
2023-04-09T16:36:41.538Z,4.30
2023-04-09T16:37:41.502Z,3.70
2023-04-09T16:38:41.519Z,3.80
2023-04-09T16:39:41.511Z,4.00
2023-04-09T16:40:41.508Z,4.00
